Time;durP1;ratioP1;P1;durP2;ratioP2;P2;SDS_P1;SDS_P2;PMS_P1;PMS_P2;Temp;Humidity;BMP_temperature;BMP_pressure;BME280_temperature;BME280_humidity;BME280_pressure;Samples;Min_cycle;Max_cycle;Signal;HPM_P1;HPM_P2
2022/08/03 00:02:23;;;;;;;8.35;7.55;;;;;;;20.83;60.66;100389.94;10222880;29;20063;-78
2022/08/03 00:07:26;;;;;;;9.38;6.80;;;;;;;20.79;60.43;100391.38;10222967;29;20040;-80
2022/08/03 00:12:30;;;;;;;7.50;6.57;;;;;;;20.66;61.13;100394.75;10248236;29;20501;-79
2022/08/03 00:17:33;;;;;;;7.50;6.72;;;;;;;20.62;60.97;100389.88;10234602;29;20039;-79
2022/08/03 00:22:55;;;;;;;9.10;6.93;;;;;;;20.56;61.12;100378.66;10229596;29;20043;-80
2022/08/03 00:27:59;;;;;;;8.43;6.88;;;;;;;20.54;61.17;100379.91;10230921;29;20537;-80
2022/08/03 00:33:03;;;;;;;7.28;6.68;;;;;;;20.53;61.35;100380.94;10232254;29;20480;-79
2022/08/03 00:38:06;;;;;;;8.65;6.90;;;;;;;20.52;61.14;100382.81;10231784;29;20556;-79
2022/08/03 00:43:10;;;;;;;9.20;6.80;;;;;;;20.52;60.93;100376.53;10221053;29;20047;-78
2022/08/03 00:48:13;;;;;;;8.85;6.22;;;;;;;20.52;60.92;100380.09;10224253;29;20039;-78
2022/08/03 00:53:36;;;;;;;7.13;6.57;;;;;;;20.46;61.26;100382.72;10227792;29;20055;-78
2022/08/03 00:58:40;;;;;;;9.15;7.03;;;;;;;20.36;61.44;100369.38;10229166;29;20071;-79
2022/08/03 01:03:43;;;;;;;10.20;6.93;;;;;;;20.28;61.37;100369.44;10227229;29;20042;-78
2022/08/03 01:09:01;;;;;;;8.18;6.55;;;;;;;20.16;61.95;100365.47;10244994;29;20027;-78
2022/08/03 01:14:09;;;;;;;9.45;7.22;;;;;;;20.03;62.07;100358.81;10236661;29;20099;-78
2022/08/03 01:19:36;;;;;;;8.43;6.95;;;;;;;20.14;61.98;100354.78;10225877;29;20051;-79
2022/08/03 01:24:50;;;;;;;7.93;7.13;;;;;;;20.04;62.08;100362.38;10225656;29;20055;-79
2022/08/03 01:30:01;;;;;;;6.78;6.20;;;;;;;20.02;62.11;100367.16;10227392;29;20102;-79
2022/08/03 01:35:11;;;;;;;11.50;6.68;;;;;;;20.02;62.28;100362.59;10225785;29;20063;-79
2022/08/03 01:40:16;;;;;;;8.00;7.20;;;;;;;20.04;62.20;100356.94;10238721;29;20568;-80
2022/08/03 01:45:22;;;;;;;10.23;7.03;;;;;;;19.97;62.50;100358.72;10225163;29;20047;-79
2022/08/03 01:50:28;;;;;;;7.60;6.97;;;;;;;19.89;62.78;100362.38;10222366;29;20063;-80
2022/08/03 01:55:34;;;;;;;8.35;6.90;;;;;;;19.80;62.91;100366.19;10223895;29;20044;-78
2022/08/03 02:00:39;;;;;;;10.57;7.75;;;;;;;19.76;63.25;100351.28;10224117;29;20071;-79
2022/08/03 02:05:44;;;;;;;8.38;7.57;;;;;;;19.66;63.42;100351.50;10222799;29;20505;-79
2022/08/03 02:10:49;;;;;;;7.82;7.13;;;;;;;19.49;63.91;100345.34;10220930;29;20440;-79
2022/08/03 02:15:55;;;;;;;8.73;7.60;;;;;;;19.41;64.10;100353.59;10221401;29;20135;-79
2022/08/03 02:21:00;;;;;;;8.20;7.40;;;;;;;19.28;64.57;100345.19;10222959;29;20051;-77
2022/08/03 02:26:15;;;;;;;10.45;7.43;;;;;;;19.27;64.07;100346.22;10221066;29;20040;-78
2022/08/03 02:31:24;;;;;;;9.32;7.22;;;;;;;19.24;64.21;100350.16;10221409;29;20505;-78
2022/08/03 02:36:30;;;;;;;8.13;7.32;;;;;;;19.23;64.22;100349.31;10220355;29;20040;-78
2022/08/03 02:41:41;;;;;;;7.75;6.93;;;;;;;19.16;64.28;100345.59;10221035;29;20040;-78
2022/08/03 02:46:48;;;;;;;8.55;7.60;;;;;;;19.05;64.83;100346.03;10218609;29;20043;-79
2022/08/03 02:51:53;;;;;;;8.45;7.68;;;;;;;19.13;64.52;100339.69;10221371;29;20052;-79
2022/08/03 02:56:57;;;;;;;8.70;7.65;;;;;;;18.99;64.92;100335.88;10220593;29;20115;-78
2022/08/03 03:02:02;;;;;;;11.00;7.70;;;;;;;18.96;64.95;100339.81;10220418;29;20051;-79
2022/08/03 03:07:05;;;;;;;8.50;7.55;;;;;;;18.89;65.18;100338.81;10221006;29;20397;-77
2022/08/03 03:12:12;;;;;;;9.07;7.40;;;;;;;18.83;65.27;100344.97;10226354;23;20048;-76
2022/08/03 03:17:17;;;;;;;8.73;7.63;;;;;;;18.97;64.93;100340.63;10211610;29;20440;-76
2022/08/03 03:22:21;;;;;;;9.20;7.38;;;;;;;18.97;64.73;100344.19;10211655;29;20051;-76
2022/08/03 03:27:25;;;;;;;12.52;7.32;;;;;;;18.96;64.67;100347.13;10210812;29;20405;-76
2022/08/03 03:32:30;;;;;;;8.25;7.35;;;;;;;18.93;64.72;100350.22;10211516;29;20130;-76
2022/08/03 03:37:33;;;;;;;8.02;7.22;;;;;;;18.85;64.95;100347.53;10210695;29;20389;-75
2022/08/03 03:42:37;;;;;;;8.20;7.40;;;;;;;18.82;65.11;100356.06;10211580;29;20063;-76
2022/08/03 03:47:42;;;;;;;9.70;7.82;;;;;;;18.77;65.21;100351.97;10210766;29;20076;-76
2022/08/03 03:52:44;;;;;;;10.75;7.93;;;;;;;18.71;65.26;100362.72;10209206;29;20536;-74
2022/08/03 03:57:47;;;;;;;8.10;7.35;;;;;;;18.65;65.46;100347.97;10213676;29;20095;-76
2022/08/03 04:02:51;;;;;;;7.78;7.07;;;;;;;18.64;65.66;100356.28;10218363;29;20406;-76
2022/08/03 04:13:21;;;;;;;9.57;7.60;;;;;;;18.64;65.58;100356.28;10216143;29;20054;-76
2022/08/03 04:18:28;;;;;;;7.43;6.85;;;;;;;18.58;65.69;100355.97;10216040;29;20044;-76
2022/08/03 04:23:35;;;;;;;8.63;7.30;;;;;;;18.67;65.54;100359.47;10214014;29;20044;-76
2022/08/03 04:28:41;;;;;;;7.95;6.47;;;;;;;18.74;65.15;100359.63;10229871;29;20107;-76
2022/08/03 04:33:46;;;;;;;12.30;7.28;;;;;;;18.85;64.80;100359.25;10216471;29;20039;-76
2022/08/03 04:38:55;;;;;;;7.45;6.63;;;;;;;18.98;64.23;100364.13;10215355;29;20054;-76
2022/08/03 04:44:00;;;;;;;7.15;5.90;;;;;;;19.08;63.79;100367.44;10216496;29;20055;-76
2022/08/03 04:49:05;;;;;;;7.82;6.20;;;;;;;19.13;63.85;100373.19;10215851;29;20103;-76
2022/08/03 04:54:12;;;;;;;6.55;5.95;;;;;;;19.22;63.44;100365.81;10213069;29;20086;-76
2022/08/03 04:59:16;;;;;;;7.55;6.68;;;;;;;19.22;63.44;100363.94;10215894;29;20052;-76
2022/08/03 05:04:21;;;;;;;7.43;5.68;;;;;;;19.18;63.35;100362.63;10215616;29;20047;-76
2022/08/03 05:09:24;;;;;;;6.38;5.88;;;;;;;19.26;63.19;100364.44;10213531;29;20043;-76
2022/08/03 05:14:47;;;;;;;8.65;6.43;;;;;;;19.31;63.05;100369.31;10213958;29;20087;-76
2022/08/03 05:19:51;;;;;;;9.35;6.15;;;;;;;19.50;62.78;100368.84;10213957;29;20560;-76
2022/08/03 05:24:54;;;;;;;7.63;5.53;;;;;;;19.68;62.63;100366.66;10213736;29;20059;-76
2022/08/03 05:29:57;;;;;;;5.72;5.22;;;;;;;19.82;61.88;100367.72;10213214;29;20060;-76
2022/08/03 05:35:24;;;;;;;8.02;5.88;;;;;;;19.99;61.53;100379.28;10209658;29;20090;-76
2022/08/03 05:40:46;;;;;;;8.32;5.05;;;;;;;20.14;60.99;100373.88;10211190;29;20067;-76
2022/08/03 05:46:09;;;;;;;5.95;5.03;;;;;;;20.33;60.66;100376.06;10211800;29;20051;-76
2022/08/03 05:51:16;;;;;;;6.80;4.32;;;;;;;20.32;60.40;100379.84;10210548;29;20513;-76
2022/08/03 05:56:22;;;;;;;5.55;4.93;;;;;;;20.58;60.15;100378.50;10212437;29;20051;-75
2022/08/03 06:01:25;;;;;;;6.60;4.63;;;;;;;20.55;60.59;100379.72;10212435;29;20047;-76
2022/08/03 06:06:29;;;;;;;5.18;4.78;;;;;;;20.81;60.24;100383.81;10212105;29;20039;-76
2022/08/03 06:11:34;;;;;;;5.88;5.18;;;;;;;21.04;59.87;100378.25;10209371;29;20059;-76
2022/08/03 06:16:37;;;;;;;6.70;4.53;;;;;;;21.36;59.63;100376.03;10211999;29;20095;-76
2022/08/03 06:21:41;;;;;;;4.38;4.00;;;;;;;21.71;59.46;100373.41;10209714;29;20389;-76
2022/08/03 06:26:44;;;;;;;4.10;3.80;;;;;;;22.05;57.50;100373.50;10207670;29;20046;-76
2022/08/03 06:31:47;;;;;;;7.25;4.10;;;;;;;22.24;56.45;100384.75;10212282;29;20566;-76
2022/08/03 06:36:53;;;;;;;6.13;4.40;;;;;;;22.44;56.04;100385.75;10211967;29;20130;-77
2022/08/03 06:42:03;;;;;;;6.50;3.67;;;;;;;22.73;56.26;100379.13;10209639;29;20051;-75
2022/08/03 06:47:08;;;;;;;7.00;4.03;;;;;;;22.97;55.81;100376.91;10210263;29;20043;-77
2022/08/03 06:52:12;;;;;;;3.38;3.05;;;;;;;23.18;55.48;100386.91;10208014;29;20165;-77
2022/08/03 06:57:35;;;;;;;3.78;2.85;;;;;;;23.35;52.83;100385.44;10212043;29;20047;-77
2022/08/03 07:02:38;;;;;;;6.25;3.00;;;;;;;23.46;53.06;100384.00;10206344;29;20059;-77
2022/08/03 07:07:43;;;;;;;6.55;3.00;;;;;;;23.64;52.06;100383.34;10208567;29;20452;-77
2022/08/03 07:12:46;;;;;;;17.30;4.40;;;;;;;23.89;52.40;100380.88;10210092;29;20478;-77
2022/08/03 07:17:58;;;;;;;7.60;2.60;;;;;;;23.96;51.14;100383.59;10205469;29;20513;-77
2022/08/03 07:23:02;;;;;;;4.40;2.55;;;;;;;24.32;51.44;100385.84;10210075;29;20043;-78
2022/08/03 07:28:05;;;;;;;7.50;2.65;;;;;;;24.64;50.16;100392.31;10209082;29;20508;-77
2022/08/03 07:33:08;;;;;;;3.50;2.22;;;;;;;25.13;49.52;100390.84;10209505;29;20036;-76
2022/08/03 07:38:12;;;;;;;5.32;2.00;;;;;;;24.79;49.25;100399.44;10208995;29;20514;-77
2022/08/03 07:43:16;;;;;;;4.20;2.33;;;;;;;25.43;48.24;100393.00;10209176;29;20047;-77
2022/08/03 07:48:19;;;;;;;3.78;2.30;;;;;;;26.59;46.12;100393.44;10208404;29;20725;-77
2022/08/03 07:53:24;;;;;;;4.45;1.88;;;;;;;27.15;44.86;100390.41;10209693;29;20152;-77
2022/08/03 07:58:27;;;;;;;3.03;2.33;;;;;;;26.99;44.86;100380.03;10208872;29;20039;-77
2022/08/03 08:03:30;;;;;;;4.30;1.83;;;;;;;26.88;45.13;100391.84;10206252;29;20044;-77
2022/08/03 08:08:58;;;;;;;2.40;1.80;;;;;;;26.95;44.21;100393.41;10210217;29;20497;-77
2022/08/03 08:14:02;;;;;;;4.47;1.80;;;;;;;27.36;44.06;100390.94;10208575;29;20067;-77
2022/08/03 08:19:05;;;;;;;4.65;1.52;;;;;;;27.30;43.09;100386.38;10211527;29;20048;-77
2022/08/03 08:24:09;;;;;;;2.53;1.95;;;;;;;26.97;43.04;100395.94;10212716;29;20064;-77
2022/08/03 08:29:21;;;;;;;2.30;1.55;;;;;;;27.42;42.34;100392.78;10211009;29;20054;-77
2022/08/03 08:34:24;;;;;;;5.03;1.77;;;;;;;27.31;42.73;100388.88;10211281;29;20084;-77
2022/08/03 08:39:28;;;;;;;5.55;2.03;;;;;;;27.71;41.81;100395.72;10213423;29;20485;-77
2022/08/03 08:44:31;;;;;;;2.95;1.85;;;;;;;28.15;41.18;100376.94;10216370;29;20115;-77
2022/08/03 08:49:36;;;;;;;3.50;1.83;;;;;;;28.57;41.40;100385.88;10221226;29;20481;-77
2022/08/03 08:54:44;;;;;;;4.82;1.80;;;;;;;28.42;41.01;100377.25;10220164;29;20130;-79
2022/08/03 08:59:46;;;;;;;7.20;1.67;;;;;;;28.51;40.93;100386.84;10225337;29;20118;-77
2022/08/03 09:04:53;;;;;;;1.63;1.50;;;;;;;29.02;39.95;100382.38;10215787;29;20075;-77
2022/08/03 09:09:57;;;;;;;2.80;1.60;;;;;;;29.15;39.07;100375.72;10226019;23;20051;-77
2022/08/03 09:15:17;;;;;;;4.80;1.58;;;;;;;29.15;39.12;100375.72;10232016;29;20056;-77
2022/08/03 09:20:21;;;;;;;5.57;1.77;;;;;;;29.62;38.40;100369.97;10250813;29;20040;-77
2022/08/03 09:25:31;;;;;;;2.50;2.13;;;;;;;29.72;38.94;100370.13;10240856;29;20058;-77
2022/08/03 09:30:34;;;;;;;5.13;2.60;;;;;;;29.21;38.93;100372.00;10223759;29;20147;-77
2022/08/03 09:35:42;;;;;;;4.22;1.92;;;;;;;29.72;38.38;100367.34;10216018;29;20070;-77
2022/08/03 09:41:01;;;;;;;4.38;2.10;;;;;;;30.20;38.20;100362.31;10265840;28;20052;-76
2022/08/03 09:46:06;;;;;;;7.20;2.38;;;;;;;30.28;38.82;100359.09;10241359;29;20468;-78
2022/08/03 09:51:09;;;;;;;3.83;2.42;;;;;;;30.81;37.03;100368.63;10245897;28;20046;-77
2022/08/03 09:56:41;;;;;;;4.75;2.03;;;;;;;29.96;39.19;100362.47;10237317;29;20081;-77
2022/08/03 10:01:44;;;;;;;6.88;3.03;;;;;;;29.92;38.96;100371.53;10231411;28;20048;-77
2022/08/03 10:07:04;;;;;;;6.18;2.92;;;;;;;30.05;38.95;100362.88;10246220;29;20048;-77
2022/08/03 10:12:10;;;;;;;3.35;2.10;;;;;;;30.75;38.16;100363.31;10239023;28;20409;-77
2022/08/03 10:17:13;;;;;;;7.35;3.03;;;;;;;29.24;39.25;100348.53;10244246;29;20051;-77
2022/08/03 10:22:19;;;;;;;5.43;2.53;;;;;;;30.30;37.59;100364.34;10236692;29;20397;-77
2022/08/03 10:27:24;;;;;;;6.78;2.20;;;;;;;31.66;36.20;100349.53;10241531;29;20043;-77
2022/08/03 10:32:30;;;;;;;4.32;2.35;;;;;;;31.72;36.63;100337.38;10253827;29;20484;-77
2022/08/03 10:37:40;;;;;;;6.18;2.30;;;;;;;30.80;36.95;100344.81;10231913;28;20047;-77
2022/08/03 10:43:07;;;;;;;3.05;1.67;;;;;;;30.63;36.63;100344.81;10240373;28;20054;-77
2022/08/03 10:48:11;;;;;;;4.53;1.85;;;;;;;31.63;36.52;100333.38;10253196;28;20477;-77
2022/08/03 10:53:14;;;;;;;1.92;1.70;;;;;;;32.14;33.91;100336.50;10234852;29;20095;-77
2022/08/03 10:58:49;;;;;;;6.00;1.60;;;;;;;31.35;35.07;100340.94;10232393;29;20126;-77
2022/08/03 11:04:16;;;;;;;3.40;1.75;;;;;;;32.12;34.43;100321.25;10221235;29;20048;-77
2022/08/03 11:09:19;;;;;;;3.53;1.38;;;;;;;31.60;35.09;100322.81;10212532;29;20043;-77
2022/08/03 11:14:23;;;;;;;4.85;1.65;;;;;;;30.90;36.10;100316.31;10230747;29;20066;-77
2022/08/03 11:19:43;;;;;;;2.13;1.77;;;;;;;32.35;34.10;100322.75;10236002;29;20465;-77
2022/08/03 11:25:00;;;;;;;5.30;1.67;;;;;;;32.69;33.21;100314.00;10211111;29;20052;-77
2022/08/03 11:30:08;;;;;;;3.65;1.60;;;;;;;31.91;33.88;100312.78;10242605;29;20147;-77
2022/08/03 11:35:13;;;;;;;2.47;1.70;;;;;;;32.34;33.01;100308.03;10247803;28;20062;-77
2022/08/03 11:40:38;;;;;;;3.95;2.25;;;;;;;31.14;34.45;100314.91;10251700;28;20055;-77
2022/08/03 11:45:56;;;;;;;6.38;1.83;;;;;;;31.95;34.04;100305.59;10221554;28;20476;-77
2022/08/03 11:51:00;;;;;;;2.00;1.30;;;;;;;31.38;33.78;100299.88;10234880;29;20039;-77
2022/08/03 11:56:03;;;;;;;3.47;1.85;;;;;;;30.85;35.25;100327.34;10222550;29;20055;-77
2022/08/03 12:01:16;;;;;;;2.20;1.48;;;;;;;33.13;32.54;100314.34;10223252;29;20126;-77
2022/08/03 12:06:24;;;;;;;4.75;2.60;;;;;;;34.42;31.05;100301.94;10225512;29;20126;-77
2022/08/03 12:11:29;;;;;;;3.38;1.92;;;;;;;32.68;33.52;100302.06;10235692;29;20090;-77
2022/08/03 12:16:33;;;;;;;3.60;2.28;;;;;;;33.57;32.49;100302.72;10224947;28;20437;-77
2022/08/03 12:21:46;;;;;;;4.03;2.20;;;;;;;32.36;33.59;100297.47;10227941;29;20052;-77
2022/08/03 12:26:58;;;;;;;2.67;2.00;;;;;;;33.58;32.35;100286.84;10236996;29;20058;-77
2022/08/03 12:32:03;;;;;;;5.82;2.42;;;;;;;34.41;30.69;100294.72;10224952;29;20051;-77
2022/08/03 12:37:06;;;;;;;5.45;1.90;;;;;;;33.20;31.65;100291.88;10264769;29;20051;-77
2022/08/03 12:42:30;;;;;;;3.70;1.83;;;;;;;34.38;31.38;100281.34;10252188;29;20050;-78
2022/08/03 12:47:55;;;;;;;3.38;1.85;;;;;;;34.76;30.21;100287.31;10254233;28;20482;-77
2022/08/03 12:52:59;;;;;;;3.63;2.13;;;;;;;33.27;31.53;100281.31;10224092;29;20047;-77
2022/08/03 12:58:03;;;;;;;2.88;2.13;;;;;;;34.61;30.18;100275.13;10232584;29;20039;-77
2022/08/03 13:03:07;;;;;;;2.80;1.70;;;;;;;34.89;30.15;100272.72;10258355;28;20055;-76
2022/08/03 13:08:30;;;;;;;6.63;2.85;;;;;;;35.18;30.15;100277.53;10222240;29;20490;-77
2022/08/03 13:13:40;;;;;;;2.55;1.55;;;;;;;35.20;29.54;100270.53;10221978;29;20055;-77
2022/08/03 13:18:45;;;;;;;2.55;2.08;;;;;;;34.35;30.14;100268.81;10229247;29;20051;-77
2022/08/03 13:23:49;;;;;;;6.28;2.00;;;;;;;36.56;28.31;100253.69;10240039;28;20043;-77
2022/08/03 13:28:52;;;;;;;3.10;1.67;;;;;;;35.90;28.15;100267.38;10237728;29;20461;-77
2022/08/03 13:33:56;;;;;;;4.20;2.30;;;;;;;36.42;27.53;100258.38;10230267;29;20059;-76
2022/08/03 13:38:59;;;;;;;2.13;1.98;;;;;;;34.94;29.28;100252.28;10240580;28;20098;-76
2022/08/03 13:44:04;;;;;;;4.38;1.92;;;;;;;36.53;27.30;100254.28;10253748;29;20497;-77
2022/08/03 13:49:28;;;;;;;3.78;1.98;;;;;;;36.71;28.13;100239.47;10255769;29;20085;-77
2022/08/03 13:54:32;;;;;;;4.28;1.73;;;;;;;35.76;28.56;100241.25;10237179;29;20555;-77
2022/08/03 13:59:35;;;;;;;2.85;2.05;;;;;;;35.07;29.22;100234.94;10262425;28;20051;-77
2022/08/03 14:04:39;;;;;;;5.32;1.95;;;;;;;34.91;29.28;100230.56;10251113;28;20524;-77
2022/08/03 14:09:42;;;;;;;3.83;1.90;;;;;;;36.17;27.66;100232.38;10215536;29;20391;-77
2022/08/03 14:14:45;;;;;;;6.80;2.25;;;;;;;36.99;27.28;100222.81;10247270;29;20043;-78
2022/08/03 14:19:49;;;;;;;3.08;1.75;;;;;;;34.50;29.01;100225.25;10254123;29;20047;-77
2022/08/03 14:24:55;;;;;;;2.70;1.85;;;;;;;34.84;28.75;100220.56;10224058;28;20118;-77
2022/08/03 14:30:00;;;;;;;6.55;2.38;;;;;;;36.13;27.54;100225.75;10244836;28;20038;-77
2022/08/03 14:35:05;;;;;;;3.58;2.03;;;;;;;36.54;26.80;100216.81;10268841;28;20039;-77
2022/08/03 14:40:08;;;;;;;3.67;2.10;;;;;;;35.18;28.16;100207.75;10273985;28;20125;-77
2022/08/03 14:45:12;;;;;;;5.43;1.92;;;;;;;35.18;28.55;100205.78;10277256;28;20058;-77
2022/08/03 14:50:24;;;;;;;5.53;1.83;;;;;;;34.05;29.90;100208.47;10247271;28;20039;-77
2022/08/03 14:55:41;;;;;;;2.47;1.85;;;;;;;34.45;29.82;100205.75;10252455;28;20047;-77
2022/08/03 15:00:53;;;;;;;3.67;1.98;;;;;;;35.41;29.33;100198.59;10276156;28;20159;-78
2022/08/03 15:05:58;;;;;;;4.53;2.22;;;;;;;34.76;29.31;100193.31;10261442;28;20085;-77
2022/08/03 15:11:00;;;;;;;3.53;1.63;;;;;;;35.28;28.71;100183.38;10234568;23;20118;-77
2022/08/03 15:16:07;;;;;;;3.72;1.77;;;;;;;36.55;26.97;100188.53;10237886;29;20115;-78
2022/08/03 15:21:11;;;;;;;3.60;1.58;;;;;;;34.99;29.34;100188.91;10245024;29;20081;-78
2022/08/03 15:26:34;;;;;;;3.35;2.30;;;;;;;34.69;29.44;100176.06;10266865;29;20052;-78
2022/08/03 15:31:43;;;;;;;4.60;2.30;;;;;;;34.32;29.80;100185.78;10245150;29;20043;-77
2022/08/03 15:36:47;;;;;;;3.35;1.95;;;;;;;35.86;28.02;100176.88;10263213;29;20043;-77
2022/08/03 15:41:50;;;;;;;3.63;2.00;;;;;;;35.49;28.72;100172.00;10254683;29;20069;-77
2022/08/03 15:46:53;;;;;;;7.07;1.80;;;;;;;35.85;29.14;100171.59;10273907;28;20048;-77
2022/08/03 15:51:58;;;;;;;3.90;2.15;;;;;;;35.14;29.81;100173.22;10259650;29;20558;-78
2022/08/03 15:57:00;;;;;;;2.97;2.10;;;;;;;36.63;27.30;100178.63;10246361;29;20063;-77
2022/08/03 16:02:03;;;;;;;4.60;2.10;;;;;;;36.23;27.57;100161.28;10241776;29;20111;-77
2022/08/03 16:07:08;;;;;;;5.78;2.72;;;;;;;35.65;28.44;100167.06;10238000;29;20051;-77
2022/08/03 16:12:14;;;;;;;5.05;2.20;;;;;;;34.56;29.60;100173.94;10241824;29;20062;-77
2022/08/03 16:17:18;;;;;;;4.35;2.00;;;;;;;33.63;31.11;100181.91;10235353;29;20055;-77
2022/08/03 16:22:23;;;;;;;3.20;1.67;;;;;;;33.40;31.70;100172.16;10229129;29;20044;-78
2022/08/03 16:27:27;;;;;;;5.15;2.13;;;;;;;32.65;32.49;100167.19;10245110;29;20127;-79
2022/08/03 16:32:50;;;;;;;4.35;1.90;;;;;;;33.35;32.08;100165.78;10235152;29;20402;-78
2022/08/03 16:37:54;;;;;;;4.07;1.98;;;;;;;34.82;30.66;100171.78;10218580;29;20123;-79
2022/08/03 16:42:58;;;;;;;7.72;2.30;;;;;;;35.24;29.54;100170.28;10215338;29;20054;-79
2022/08/03 16:48:01;;;;;;;8.25;1.90;;;;;;;34.69;30.03;100158.50;10219728;29;20051;-83
2022/08/03 16:53:10;;;;;;;3.85;1.73;;;;;;;35.60;28.74;100164.34;10218429;29;20044;-83
2022/08/03 16:58:18;;;;;;;6.40;1.63;;;;;;;35.33;29.50;100156.50;10209756;29;20048;-84
2022/08/03 17:03:41;;;;;;;5.45;1.55;;;;;;;33.96;30.10;100166.44;10216459;29;20339;-83
2022/08/03 17:09:07;;;;;;;5.13;1.88;;;;;;;36.18;28.17;100151.03;10235923;29;20047;-83
2022/08/03 17:14:13;;;;;;;2.95;2.17;;;;;;;37.01;27.00;100159.81;10218191;29;20134;-84
2022/08/03 17:19:17;;;;;;;4.07;1.60;;;;;;;37.46;27.35;100159.28;10237549;29;20055;-83
2022/08/03 17:24:27;;;;;;;2.50;1.75;;;;;;;38.47;26.59;100160.19;10197711;29;20044;-84
2022/08/03 17:29:33;;;;;;;5.20;1.80;;;;;;;41.15;23.85;100153.75;10221314;29;20048;-83
2022/08/03 17:34:38;;;;;;;4.13;1.52;;;;;;;39.67;24.66;100155.66;10228623;29;20052;-85
2022/08/03 17:39:43;;;;;;;3.03;1.55;;;;;;;40.65;23.99;100151.53;10223684;29;20044;-84
2022/08/03 17:45:02;;;;;;;2.28;1.70;;;;;;;39.60;24.46;100155.31;10223252;29;20273;-84
2022/08/03 17:50:08;;;;;;;2.45;1.50;;;;;;;39.63;25.62;100161.13;10214765;29;20090;-83
2022/08/03 17:55:31;;;;;;;4.90;1.83;;;;;;;39.75;25.04;100159.66;10225662;29;20074;-83
2022/08/03 18:06:40;;;;;;;1.92;1.52;;;;;;;36.45;30.19;100171.06;10221558;29;20233;-84
2022/08/03 18:12:06;;;;;;;4.10;1.73;;;;;;;34.41;31.03;100170.09;10209062;29;20044;-84
2022/08/03 18:17:17;;;;;;;5.20;2.05;;;;;;;32.83;34.01;100176.09;10222833;29;20054;-84
2022/08/03 18:22:21;;;;;;;4.80;1.75;;;;;;;31.88;35.63;100179.19;10224031;29;20048;-83
2022/08/03 18:27:31;;;;;;;4.03;1.58;;;;;;;31.31;36.62;100178.03;10222356;29;20587;-80
2022/08/03 18:32:54;;;;;;;3.30;1.70;;;;;;;30.93;37.38;100179.09;10217619;29;20099;-79
2022/08/03 18:38:18;;;;;;;5.03;1.92;;;;;;;30.72;38.58;100187.25;10243737;29;20044;-82
2022/08/03 18:43:27;;;;;;;6.63;1.90;;;;;;;30.39;39.43;100180.81;10225445;29;20158;-82
2022/08/03 18:48:56;;;;;;;7.78;2.08;;;;;;;30.12;39.11;100185.47;10221025;29;20044;-80
2022/08/03 18:54:07;;;;;;;5.40;1.90;;;;;;;30.01;39.51;100188.09;10222451;29;20079;-78
2022/08/03 19:05:01;;;;;;;5.95;2.25;;;;;;;29.53;40.25;100183.28;10610387;23;20055;-80
2022/08/03 19:10:06;;;;;;;7.57;2.22;;;;;;;29.43;40.66;100195.06;10217666;29;20098;-75
2022/08/03 19:15:13;;;;;;;5.20;2.13;;;;;;;29.09;41.24;100197.81;10215856;29;20085;-78
2022/08/03 19:20:21;;;;;;;7.43;2.08;;;;;;;28.91;41.30;100206.38;10220487;29;20433;-78
2022/08/03 19:25:27;;;;;;;4.70;1.65;;;;;;;28.82;41.73;100202.31;10230285;29;20385;-78
2022/08/03 19:30:39;;;;;;;13.13;2.40;;;;;;;28.58;41.77;100205.22;10219975;29;20106;-79
2022/08/03 19:35:49;;;;;;;8.20;2.00;;;;;;;28.51;41.99;100207.25;10222684;29;20453;-79
2022/08/03 19:41:01;;;;;;;5.60;2.83;;;;;;;28.32;42.21;100209.38;10244297;28;20147;-78
2022/08/03 19:46:12;;;;;;;8.02;2.03;;;;;;;28.33;42.04;100210.22;10221047;29;20051;-79
2022/08/03 19:51:18;;;;;;;8.02;2.67;;;;;;;28.23;41.89;100199.84;10218503;29;20055;-79
2022/08/03 19:56:46;;;;;;;7.50;2.30;;;;;;;28.14;42.49;100212.31;10221177;29;20092;-79
2022/08/03 20:01:49;;;;;;;6.97;2.53;;;;;;;28.07;43.06;100211.66;10220471;29;20048;-79
2022/08/03 20:06:57;;;;;;;3.53;2.40;;;;;;;27.99;43.93;100216.47;10209978;29;20055;-78
2022/08/03 20:12:00;;;;;;;4.88;2.25;;;;;;;27.84;44.59;100214.19;10204724;29;20047;-78
2022/08/03 20:17:05;;;;;;;7.43;2.92;;;;;;;27.74;44.69;100218.66;10204499;29;20112;-79
2022/08/03 20:22:12;;;;;;;6.82;2.70;;;;;;;27.64;44.87;100221.16;10201852;29;20035;-78
2022/08/03 20:27:21;;;;;;;9.18;3.38;;;;;;;27.40;43.63;100215.69;10199214;29;20289;-79
2022/08/03 20:32:33;;;;;;;6.55;3.22;;;;;;;27.42;43.60;100215.44;10204069;29;20442;-79
2022/08/03 20:37:37;;;;;;;6.88;2.20;;;;;;;27.16;44.50;100220.31;10197557;29;20072;-79
2022/08/03 20:42:43;;;;;;;5.57;2.35;;;;;;;26.68;45.21;100218.50;10203391;29;20040;-79
2022/08/03 20:47:47;;;;;;;6.82;2.55;;;;;;;26.31;46.11;100226.88;10208290;29;20052;-78
2022/08/03 20:53:11;;;;;;;7.80;2.58;;;;;;;26.09;47.20;100223.72;10222377;29;20044;-78
2022/08/03 20:58:14;;;;;;;10.15;2.45;;;;;;;25.90;47.61;100231.16;10224710;29;20055;-77
2022/08/03 21:03:18;;;;;;;7.63;2.20;;;;;;;25.63;48.31;100219.56;10250689;29;20066;-77
2022/08/03 21:08:26;;;;;;;6.00;2.55;;;;;;;25.21;49.25;100213.84;10258836;29;20119;-77
2022/08/03 21:13:38;;;;;;;7.05;2.90;;;;;;;25.41;49.03;100224.66;10241993;29;20036;-77
2022/08/03 21:18:45;;;;;;;6.07;2.33;;;;;;;25.73;48.48;100225.44;10208358;29;20103;-77
2022/08/03 21:23:53;;;;;;;4.38;2.47;;;;;;;25.77;48.92;100232.13;10190595;29;20401;-77
2022/08/03 21:28:56;;;;;;;5.57;2.35;;;;;;;25.57;49.25;100220.50;10200616;29;20047;-77
2022/08/03 21:34:02;;;;;;;7.05;2.85;;;;;;;25.62;49.33;100215.16;10206793;29;20461;-76
2022/08/03 21:39:08;;;;;;;4.07;2.83;;;;;;;25.68;49.18;100222.50;10216318;29;20765;-77
2022/08/03 21:44:11;;;;;;;8.82;3.13;;;;;;;25.58;49.29;100212.00;10248041;29;20298;-77
2022/08/03 21:49:14;;;;;;;8.13;2.55;;;;;;;25.59;49.79;100221.09;10263526;28;20070;-77
2022/08/03 21:54:42;;;;;;;6.00;2.47;;;;;;;25.53;49.90;100220.06;10263302;28;20040;-77
2022/08/03 21:59:51;;;;;;;9.57;2.75;;;;;;;25.42;50.31;100218.06;10265179;28;20047;-77
2022/08/03 22:04:56;;;;;;;6.95;3.00;;;;;;;25.32;50.39;100218.63;10259090;28;20063;-77
2022/08/03 22:10:04;;;;;;;8.23;2.70;;;;;;;25.36;49.91;100230.81;10229576;29;20497;-76
2022/08/03 22:15:09;;;;;;;10.55;2.70;;;;;;;25.35;50.01;100228.31;10225519;29;20074;-78
2022/08/03 22:20:14;;;;;;;6.80;2.90;;;;;;;25.27;50.52;100223.09;10228120;29;20059;-78
2022/08/03 22:25:21;;;;;;;7.00;3.50;;;;;;;24.91;51.62;100217.22;10228188;29;20051;-78
2022/08/03 22:30:23;;;;;;;8.52;3.53;;;;;;;24.77;52.60;100215.66;10228881;29;20055;-78
2022/08/03 22:35:27;;;;;;;7.72;3.25;;;;;;;24.70;52.68;100220.34;10228164;29;20047;-78
2022/08/03 22:40:31;;;;;;;9.75;3.83;;;;;;;24.69;53.03;100230.50;10227935;29;20056;-78
2022/08/03 22:45:35;;;;;;;12.90;3.10;;;;;;;24.58;53.33;100233.09;10244194;29;20112;-78
2022/08/03 22:50:59;;;;;;;12.02;2.88;;;;;;;24.46;54.15;100230.19;10229107;29;20044;-78
2022/08/03 22:56:04;;;;;;;10.65;3.50;;;;;;;24.28;53.87;100237.22;10223059;29;20480;-76
2022/08/03 23:01:08;;;;;;;17.05;3.35;;;;;;;23.90;54.45;100239.91;10216382;29;20098;-77
2022/08/03 23:06:11;;;;;;;9.10;2.75;;;;;;;23.57;55.86;100242.72;10217376;29;20066;-78
2022/08/03 23:11:18;;;;;;;9.65;3.13;;;;;;;23.73;56.09;100238.69;10203288;29;20055;-79
2022/08/03 23:16:22;;;;;;;9.10;3.70;;;;;;;23.73;55.67;100238.69;10202548;29;20051;-78
2022/08/03 23:21:31;;;;;;;10.07;3.22;;;;;;;23.61;56.49;100235.72;10201363;29;20043;-78
2022/08/03 23:26:56;;;;;;;10.55;3.88;;;;;;;23.83;55.69;100231.72;10221997;29;20063;-78
2022/08/03 23:32:01;;;;;;;6.20;3.70;;;;;;;23.46;56.16;100235.97;10229032;29;20044;-78
2022/08/03 23:37:05;;;;;;;11.07;3.03;;;;;;;23.03;57.85;100232.78;10229139;29;20049;-78
2022/08/03 23:42:11;;;;;;;8.80;3.90;;;;;;;23.14;57.62;100221.22;10223913;29;20087;-78
2022/08/03 23:47:14;;;;;;;11.27;3.50;;;;;;;23.14;57.58;100222.06;10224427;29;20134;-78
2022/08/03 23:52:32;;;;;;;9.65;2.83;;;;;;;22.96;58.03;100224.59;10227404;29;20048;-77